Time;durP1;ratioP1;P1;durP2;ratioP2;P2;SDS_P1;SDS_P2;PMS_P1;PMS_P2;Temp;Humidity;BMP_temperature;BMP_pressure;BME280_temperature;BME280_humidity;BME280_pressure;Samples;Min_cycle;Max_cycle;Signal;HPM_P1;HPM_P2
2023/08/23 00:03:25;;;;;;;4.83;4.43;;;27.50;36.50;;;;;;10282495;28;20236;-71
2023/08/23 00:08:29;;;;;;;4.53;3.93;;;27.50;36.10;;;;;;10282079;28;20236;-71
2023/08/23 00:13:33;;;;;;;4.13;3.83;;;27.60;36.30;;;;;;10272927;28;20236;-71
2023/08/23 00:18:36;;;;;;;3.83;3.53;;;27.60;36.60;;;;;;10242819;28;20229;-71
2023/08/23 00:23:39;;;;;;;4.70;4.40;;;27.60;36.20;;;;;;10250713;28;20236;-71
2023/08/23 00:28:44;;;;;;;5.07;4.57;;;27.60;36.30;;;;;;10245100;28;20235;-71
2023/08/23 00:33:47;;;;;;;5.20;4.70;;;27.50;36.80;;;;;;10270387;28;20332;-72
2023/08/23 00:38:50;;;;;;;4.87;4.47;;;27.50;36.50;;;;;;10254263;28;20282;-71
2023/08/23 00:43:55;;;;;;;5.13;4.63;;;27.40;36.90;;;;;;10282087;28;20727;-71
2023/08/23 00:48:58;;;;;;;4.80;4.30;;;27.30;37.30;;;;;;10281928;28;20948;-71
2023/08/23 00:54:02;;;;;;;5.13;4.63;;;27.20;37.00;;;;;;10282181;28;20243;-72
2023/08/23 00:59:08;;;;;;;5.10;4.60;;;27.10;37.60;;;;;;10281777;28;20306;-71
2023/08/23 01:04:11;;;;;;;5.93;4.77;;;27.00;38.20;;;;;;10251353;28;20236;-71
2023/08/23 01:09:24;;;;;;;5.23;4.80;;;26.90;37.60;;;;;;10265602;28;20780;-72
2023/08/23 01:14:38;;;;;;;5.50;5.00;;;26.90;39.30;;;;;;10241827;29;20311;-71
2023/08/23 01:19:48;;;;;;;5.20;4.80;;;26.80;39.30;;;;;;10244243;28;20324;-71
2023/08/23 01:24:53;;;;;;;5.70;4.03;;;26.80;39.40;;;;;;10248659;29;20318;-72
2023/08/23 01:29:56;;;;;;;4.93;4.40;;;26.80;38.80;;;;;;10256090;28;20228;-71
2023/08/23 01:35:15;;;;;;;4.60;4.23;;;26.90;38.30;;;;;;10263986;28;20247;-71
2023/08/23 01:40:20;;;;;;;6.17;4.67;;;26.90;39.30;;;;;;10248015;29;20232;-71
2023/08/23 01:45:23;;;;;;;6.13;5.10;;;26.90;39.00;;;;;;10247644;28;20235;-71
2023/08/23 01:50:27;;;;;;;5.13;4.73;;;26.80;38.50;;;;;;10247899;29;20236;-70
2023/08/23 01:55:31;;;;;;;4.40;4.07;;;26.80;38.60;;;;;;10272600;28;20674;-71
2023/08/23 02:00:34;;;;;;;6.93;5.07;;;26.70;39.30;;;;;;10287004;28;20232;-71
2023/08/23 02:05:37;;;;;;;4.90;4.50;;;26.70;38.90;;;;;;10287426;28;20259;-71
2023/08/23 02:10:42;;;;;;;4.83;4.43;;;26.70;39.00;;;;;;10286649;28;20239;-71
2023/08/23 02:15:46;;;;;;;5.03;4.63;;;26.60;39.80;;;;;;10287025;28;20231;-71
2023/08/23 02:20:55;;;;;;;5.07;4.67;;;26.60;39.10;;;;;;10286544;28;20690;-71
2023/08/23 02:26:01;;;;;;;5.00;4.60;;;26.50;40.30;;;;;;10265033;28;20239;-72
2023/08/23 02:31:04;;;;;;;5.20;4.80;;;26.50;40.10;;;;;;10245705;28;20224;-71
2023/08/23 02:36:07;;;;;;;5.00;4.60;;;26.40;39.40;;;;;;10259928;28;20294;-71
2023/08/23 02:41:12;;;;;;;5.23;4.60;;;26.50;39.60;;;;;;10277685;28;20239;-70
2023/08/23 02:46:15;;;;;;;5.50;4.63;;;26.50;40.10;;;;;;10254626;28;20240;-71
2023/08/23 02:51:18;;;;;;;5.17;4.77;;;26.60;39.60;;;;;;10252745;28;20235;-71
2023/08/23 02:56:23;;;;;;;5.03;4.50;;;26.60;39.70;;;;;;10285445;28;21896;-71
2023/08/23 03:01:26;;;;;;;4.80;4.50;;;26.60;40.00;;;;;;10302264;28;20242;-71
2023/08/23 03:06:30;;;;;;;5.03;4.53;;;26.60;39.40;;;;;;10276682;28;20243;-71
2023/08/23 03:11:34;;;;;;;5.93;4.90;;;26.70;39.40;;;;;;10284414;28;20239;-72
2023/08/23 03:16:37;;;;;;;5.07;4.57;;;26.70;40.10;;;;;;10284035;28;20236;-71
2023/08/23 03:21:41;;;;;;;5.47;5.07;;;26.60;39.50;;;;;;10268431;28;20232;-71
2023/08/23 03:26:45;;;;;;;4.70;4.40;;;26.60;39.70;;;;;;10264845;28;20311;-71
2023/08/23 03:31:49;;;;;;;5.73;5.00;;;26.50;40.00;;;;;;10275385;28;20232;-71
2023/08/23 03:36:52;;;;;;;8.57;5.60;;;26.40;40.00;;;;;;10250279;28;20241;-71
2023/08/23 03:41:56;;;;;;;5.50;4.93;;;26.40;39.90;;;;;;10273859;28;20242;-71
2023/08/23 03:47:00;;;;;;;5.47;4.97;;;26.30;40.70;;;;;;10243813;28;20614;-72
2023/08/23 03:52:03;;;;;;;5.20;4.80;;;26.20;40.20;;;;;;10280593;28;20322;-71
2023/08/23 03:57:07;;;;;;;5.20;4.70;;;26.10;40.50;;;;;;10283148;28;20787;-71
2023/08/23 04:02:11;;;;;;;6.33;5.70;;;26.00;41.50;;;;;;10282908;28;20246;-71
2023/08/23 04:07:16;;;;;;;5.80;5.30;;;26.00;41.20;;;;;;10282762;28;20736;-71
2023/08/23 04:12:20;;;;;;;5.53;5.07;;;26.00;41.60;;;;;;10282126;28;21004;-71
2023/08/23 04:17:24;;;;;;;5.47;5.00;;;26.00;41.60;;;;;;10265975;28;20311;-71
2023/08/23 04:22:27;;;;;;;5.20;4.80;;;25.90;41.40;;;;;;10242491;28;20243;-71
2023/08/23 04:27:32;;;;;;;6.40;5.30;;;25.90;41.50;;;;;;10242824;28;20279;-72
2023/08/23 04:32:35;;;;;;;5.40;4.90;;;25.80;41.40;;;;;;10266044;28;20611;-71
2023/08/23 04:37:38;;;;;;;6.37;5.63;;;25.70;41.30;;;;;;10266421;28;20235;-71
2023/08/23 04:42:43;;;;;;;5.77;5.27;;;25.70;41.30;;;;;;10242346;28;20323;-71
2023/08/23 04:47:46;;;;;;;5.77;5.20;;;25.60;41.80;;;;;;10253497;28;20314;-71
2023/08/23 04:52:49;;;;;;;6.27;5.70;;;25.60;41.30;;;;;;10246249;28;20240;-72
2023/08/23 04:57:54;;;;;;;5.33;4.93;;;25.40;41.70;;;;;;10265402;28;20228;-71
2023/08/23 05:02:57;;;;;;;4.90;4.60;;;25.30;42.40;;;;;;10261844;28;20262;-71
2023/08/23 05:08:00;;;;;;;5.47;5.07;;;25.30;42.00;;;;;;10289469;28;20239;-71
2023/08/23 05:13:06;;;;;;;6.73;5.93;;;25.20;42.30;;;;;;10288583;28;20232;-71
2023/08/23 05:18:09;;;;;;;7.20;5.80;;;25.10;43.30;;;;;;10288729;28;20310;-71
2023/08/23 05:23:12;;;;;;;5.80;5.27;;;25.10;42.90;;;;;;10288838;28;20236;-72
2023/08/23 05:28:17;;;;;;;5.60;5.20;;;25.00;42.90;;;;;;10279263;28;20720;-72
2023/08/23 05:33:20;;;;;;;6.47;5.53;;;25.00;43.60;;;;;;10276692;28;20242;-71
2023/08/23 05:38:24;;;;;;;5.57;5.07;;;25.00;43.10;;;;;;10285021;28;20314;-71
2023/08/23 05:43:28;;;;;;;6.37;5.87;;;25.00;43.00;;;;;;10270986;28;20251;-71
2023/08/23 05:48:34;;;;;;;7.50;5.30;;;25.00;43.70;;;;;;10270058;28;20310;-71
2023/08/23 05:53:38;;;;;;;6.23;5.70;;;25.10;43.30;;;;;;10259556;28;20235;-72
2023/08/23 05:58:43;;;;;;;6.20;5.70;;;25.20;43.30;;;;;;10259475;28;20243;-71
2023/08/23 06:03:46;;;;;;;6.87;6.13;;;25.30;43.90;;;;;;10277945;28;20255;-71
2023/08/23 06:08:49;;;;;;;6.23;5.73;;;25.40;43.50;;;;;;10272402;28;20231;-71
2023/08/23 06:13:56;;;;;;;5.83;5.33;;;25.40;43.60;;;;;;10271361;28;20322;-71
2023/08/23 06:18:59;;;;;;;6.23;5.70;;;25.50;43.60;;;;;;10281601;28;20227;-72
2023/08/23 06:24:02;;;;;;;6.23;5.53;;;25.60;43.30;;;;;;10272153;28;20961;-71
2023/08/23 06:29:07;;;;;;;5.80;5.30;;;25.70;43.00;;;;;;10253988;28;20230;-72
2023/08/23 06:34:10;;;;;;;5.67;5.17;;;25.80;43.30;;;;;;10270685;28;20354;-71
2023/08/23 06:39:13;;;;;;;5.73;5.20;;;25.90;42.80;;;;;;10277230;28;20220;-72
2023/08/23 06:44:37;;;;;;;5.60;5.10;;;26.00;42.60;;;;;;10275401;28;20232;-71
2023/08/23 06:49:40;;;;;;;5.73;5.30;;;26.10;42.30;;;;;;10268930;28;20319;-71
2023/08/23 06:54:43;;;;;;;5.27;4.87;;;26.20;41.70;;;;;;10277278;28;20286;-71
2023/08/23 06:59:48;;;;;;;6.87;4.97;;;26.30;41.70;;;;;;10276387;28;20238;-71
2023/08/23 07:04:52;;;;;;;8.30;5.30;;;26.40;41.10;;;;;;10264780;28;20279;-71
2023/08/23 07:09:55;;;;;;;6.43;5.87;;;26.50;41.20;;;;;;10260456;28;20237;-71
2023/08/23 07:15:00;;;;;;;6.47;5.53;;;26.60;41.30;;;;;;10256538;28;20339;-72
2023/08/23 07:20:03;;;;;;;6.50;5.97;;;26.70;41.00;;;;;;10254224;28;20312;-71
2023/08/23 07:25:08;;;;;;;6.97;5.10;;;26.80;40.90;;;;;;10243710;28;20236;-71
2023/08/23 07:30:14;;;;;;;6.23;5.57;;;26.90;40.80;;;;;;10274089;28;20866;-71
2023/08/23 07:35:17;;;;;;;6.27;5.67;;;27.00;40.50;;;;;;10275904;28;20318;-71
2023/08/23 07:40:20;;;;;;;6.20;5.50;;;27.20;40.50;;;;;;10275139;28;20224;-72
2023/08/23 07:45:25;;;;;;;6.73;5.47;;;27.30;40.30;;;;;;10267580;28;20315;-72
2023/08/23 07:50:28;;;;;;;6.47;5.30;;;27.40;40.10;;;;;;10247178;28;20246;-71
2023/08/23 07:55:31;;;;;;;5.60;5.10;;;27.60;40.20;;;;;;10251133;28;20255;-71
2023/08/23 08:00:35;;;;;;;6.07;5.60;;;27.70;39.90;;;;;;10276310;28;20235;-71
2023/08/23 08:05:39;;;;;;;5.63;5.13;;;27.90;39.40;;;;;;10266531;28;20247;-72
2023/08/23 08:10:43;;;;;;;5.53;5.03;;;28.10;39.60;;;;;;10263362;28;20242;-72
2023/08/23 08:15:47;;;;;;;5.47;4.77;;;28.30;39.30;;;;;;10274261;28;20291;-72
2023/08/23 08:20:51;;;;;;;4.93;4.53;;;28.60;38.70;;;;;;10258233;28;20768;-73
2023/08/23 08:25:54;;;;;;;4.90;4.40;;;28.70;38.60;;;;;;10242707;29;20262;-72
2023/08/23 08:30:59;;;;;;;4.53;4.20;;;29.00;38.10;;;;;;10277306;28;20322;-72
2023/08/23 08:36:02;;;;;;;4.47;4.13;;;29.20;37.00;;;;;;10279335;28;20930;-72
2023/08/23 08:41:05;;;;;;;4.60;4.20;;;29.40;37.10;;;;;;10275601;28;20723;-71
2023/08/23 08:46:11;;;;;;;5.90;4.57;;;29.60;36.50;;;;;;10272439;28;20226;-72
2023/08/23 08:51:19;;;;;;;4.53;4.23;;;29.80;35.90;;;;;;10269693;28;20247;-72
2023/08/23 08:56:23;;;;;;;4.70;4.27;;;30.00;35.50;;;;;;10270926;28;20236;-72
2023/08/23 09:01:35;;;;;;;4.93;4.30;;;30.20;35.60;;;;;;10258422;28;20295;-72
2023/08/23 09:06:38;;;;;;;5.40;4.90;;;30.40;34.80;;;;;;10273091;28;20228;-72
2023/08/23 09:11:42;;;;;;;5.03;4.43;;;30.60;35.50;;;;;;10261148;28;20327;-72
2023/08/23 09:16:47;;;;;;;4.50;4.20;;;30.90;35.40;;;;;;10281983;28;20913;-72
2023/08/23 09:21:50;;;;;;;5.27;4.73;;;31.10;33.90;;;;;;10284478;28;20231;-72
2023/08/23 09:26:53;;;;;;;5.83;4.40;;;31.30;34.30;;;;;;10278582;28;20735;-72
2023/08/23 09:32:01;;;;;;;4.73;4.43;;;31.50;34.10;;;;;;10281094;28;20303;-72
2023/08/23 09:37:07;;;;;;;4.87;4.47;;;31.60;32.60;;;;;;10272888;28;20316;-72
2023/08/23 09:42:13;;;;;;;4.83;4.43;;;31.70;31.70;;;;;;10278597;28;20250;-72
2023/08/23 09:47:22;;;;;;;4.87;4.47;;;31.90;32.80;;;;;;10263944;28;20319;-72
2023/08/23 09:52:31;;;;;;;4.97;4.53;;;32.10;30.50;;;;;;10268192;28;20241;-71
2023/08/23 09:57:35;;;;;;;4.87;4.57;;;32.10;30.90;;;;;;10266255;28;20745;-72
2023/08/23 10:02:41;;;;;;;4.97;4.57;;;32.20;31.20;;;;;;10278648;28;20228;-73
2023/08/23 10:07:44;;;;;;;4.53;4.13;;;32.20;30.50;;;;;;10269012;28;20235;-72
2023/08/23 10:12:52;;;;;;;4.33;3.93;;;32.20;31.40;;;;;;10273717;28;20266;-72
2023/08/23 10:17:59;;;;;;;4.40;4.03;;;32.20;30.30;;;;;;10268661;28;20269;-72
2023/08/23 10:23:12;;;;;;;4.73;4.03;;;32.30;29.40;;;;;;10267325;28;20238;-72
2023/08/23 10:28:18;;;;;;;4.53;4.13;;;32.40;29.20;;;;;;10265163;28;20242;-72
2023/08/23 10:33:22;;;;;;;4.30;4.00;;;32.40;29.70;;;;;;10271176;28;20239;-72
2023/08/23 10:38:27;;;;;;;4.73;4.33;;;32.50;29.00;;;;;;10277748;28;20240;-71
2023/08/23 10:43:32;;;;;;;4.20;3.90;;;32.50;28.70;;;;;;10267607;28;20237;-71
2023/08/23 10:48:37;;;;;;;4.30;4.00;;;32.50;28.50;;;;;;10276389;28;20228;-71
2023/08/23 10:53:41;;;;;;;4.57;4.17;;;32.60;28.30;;;;;;10274113;28;20748;-70
2023/08/23 10:58:45;;;;;;;4.87;4.47;;;32.60;28.40;;;;;;10262823;28;20234;-71
2023/08/23 11:03:50;;;;;;;4.50;4.20;;;32.70;28.60;;;;;;10275851;28;20235;-70
2023/08/23 11:08:54;;;;;;;4.60;4.20;;;32.70;28.50;;;;;;10269474;28;20312;-70
2023/08/23 11:13:57;;;;;;;4.80;4.40;;;32.70;28.50;;;;;;10266542;28;20323;-71
2023/08/23 11:19:03;;;;;;;6.43;4.23;;;32.80;28.10;;;;;;10267079;28;20597;-70
2023/08/23 11:24:07;;;;;;;4.67;4.33;;;32.90;27.70;;;;;;10264049;28;20224;-72
2023/08/23 11:29:10;;;;;;;4.73;4.20;;;33.00;28.10;;;;;;10268866;28;20430;-72
2023/08/23 11:34:15;;;;;;;4.13;3.83;;;33.00;27.80;;;;;;10263664;28;20593;-70
2023/08/23 11:39:18;;;;;;;5.17;3.87;;;33.10;27.50;;;;;;10252955;28;20729;-71
2023/08/23 11:44:21;;;;;;;4.40;4.10;;;33.20;28.00;;;;;;10267918;28;20677;-70
2023/08/23 11:49:26;;;;;;;4.40;4.00;;;33.30;27.90;;;;;;10257394;28;20793;-70
2023/08/23 11:54:29;;;;;;;4.37;3.97;;;33.50;27.00;;;;;;10254394;28;20236;-70
2023/08/23 11:59:32;;;;;;;4.30;4.00;;;33.50;27.70;;;;;;10264589;28;20453;-70
2023/08/23 12:04:40;;;;;;;5.13;4.00;;;33.50;27.60;;;;;;10262691;28;20244;-70
2023/08/23 12:09:44;;;;;;;4.80;4.20;;;33.50;25.80;;;;;;10257885;28;20232;-70
2023/08/23 12:14:47;;;;;;;5.07;4.20;;;33.50;26.80;;;;;;10260588;28;20224;-70
2023/08/23 12:19:51;;;;;;;4.37;4.00;;;33.40;26.30;;;;;;10260581;28;20463;-70
2023/08/23 12:24:55;;;;;;;4.27;3.97;;;33.40;26.80;;;;;;10262400;28;20328;-70
2023/08/23 12:29:58;;;;;;;4.20;3.90;;;33.30;26.80;;;;;;10255748;28;20243;-70
2023/08/23 12:35:03;;;;;;;3.97;3.67;;;33.30;26.90;;;;;;10259288;28;20234;-70
2023/08/23 12:40:09;;;;;;;4.30;4.00;;;33.30;26.70;;;;;;10250458;28;20237;-69
2023/08/23 12:45:13;;;;;;;4.30;3.90;;;33.40;26.50;;;;;;10255553;28;20235;-69
2023/08/23 12:50:18;;;;;;;6.17;4.40;;;33.30;26.20;;;;;;10255968;28;20251;-70
2023/08/23 12:55:21;;;;;;;4.80;4.40;;;33.30;25.80;;;;;;10248509;28;20236;-70
2023/08/23 13:00:25;;;;;;;4.40;4.00;;;33.20;26.20;;;;;;10255756;28;20256;-69
2023/08/23 13:05:36;;;;;;;4.63;4.23;;;33.20;26.30;;;;;;10254960;28;20306;-70
2023/08/23 13:10:39;;;;;;;5.10;3.83;;;33.20;25.80;;;;;;10263106;28;20505;-70
2023/08/23 13:15:43;;;;;;;4.30;4.00;;;33.20;26.00;;;;;;10258199;28;20252;-70
2023/08/23 13:20:47;;;;;;;4.37;4.00;;;33.20;26.60;;;;;;10255408;28;20232;-70
2023/08/23 13:25:50;;;;;;;5.00;3.90;;;33.30;26.30;;;;;;10259910;28;20663;-69
2023/08/23 13:30:53;;;;;;;4.03;3.70;;;33.40;26.30;;;;;;10255030;28;20239;-69
2023/08/23 13:35:59;;;;;;;4.20;3.90;;;33.40;26.20;;;;;;10263010;28;20228;-69
2023/08/23 13:41:02;;;;;;;4.20;3.90;;;33.40;25.80;;;;;;10263079;28;20232;-71
2023/08/23 13:46:06;;;;;;;4.00;3.70;;;33.50;25.90;;;;;;10257961;28;20740;-69
2023/08/23 13:51:13;;;;;;;4.70;4.30;;;33.50;25.80;;;;;;10265028;28;20235;-70
2023/08/23 13:56:16;;;;;;;4.50;4.20;;;33.50;25.30;;;;;;10260091;28;20243;-70
2023/08/23 14:01:19;;;;;;;4.33;3.93;;;33.40;25.60;;;;;;10255986;28;20236;-70
2023/08/23 14:06:24;;;;;;;4.40;4.10;;;33.40;25.80;;;;;;10254694;28;20256;-69
2023/08/23 14:11:34;;;;;;;5.57;3.77;;;33.40;25.60;;;;;;10259568;28;20315;-70
2023/08/23 14:16:37;;;;;;;4.53;4.13;;;33.40;25.30;;;;;;10254590;28;21008;-70
2023/08/23 14:21:42;;;;;;;4.00;3.70;;;33.50;26.10;;;;;;10253802;28;20238;-70
2023/08/23 14:26:45;;;;;;;4.53;4.23;;;33.50;25.50;;;;;;10255678;28;20762;-71
2023/08/23 14:31:49;;;;;;;4.93;4.10;;;33.50;25.50;;;;;;10258273;28;20318;-70
2023/08/23 14:36:53;;;;;;;4.17;3.87;;;33.40;25.40;;;;;;10252582;28;20277;-70
2023/08/23 14:41:57;;;;;;;4.17;3.83;;;33.30;25.10;;;;;;10252862;28;20752;-70
2023/08/23 14:47:00;;;;;;;4.17;3.70;;;33.30;25.70;;;;;;10247779;28;20729;-70
2023/08/23 14:52:05;;;;;;;4.17;3.77;;;33.40;25.90;;;;;;10254995;28;20350;-70
2023/08/23 14:57:08;;;;;;;4.20;3.90;;;33.40;25.60;;;;;;10247750;28;21043;-70
2023/08/23 15:02:13;;;;;;;4.20;3.90;;;33.50;25.40;;;;;;10247181;28;20734;-70
2023/08/23 15:07:18;;;;;;;4.00;3.70;;;33.50;25.30;;;;;;10250159;28;20232;-70
2023/08/23 15:12:21;;;;;;;4.13;3.70;;;33.50;25.00;;;;;;10257075;28;20243;-70
2023/08/23 15:17:24;;;;;;;4.50;3.80;;;33.50;25.10;;;;;;10252939;28;20229;-69
2023/08/23 15:22:31;;;;;;;3.87;3.67;;;33.50;25.30;;;;;;10255686;28;20235;-69
2023/08/23 15:27:34;;;;;;;4.20;3.90;;;33.50;25.10;;;;;;10254216;28;20237;-70
2023/08/23 15:32:47;;;;;;;4.33;3.93;;;33.50;25.10;;;;;;10267639;28;20324;-70
2023/08/23 15:37:52;;;;;;;4.10;3.80;;;33.50;24.80;;;;;;10255247;28;20231;-70
2023/08/23 15:42:55;;;;;;;4.87;4.30;;;33.50;24.70;;;;;;10260242;28;20326;-70
2023/08/23 15:47:58;;;;;;;4.13;3.77;;;33.50;25.10;;;;;;10259819;28;20318;-72
2023/08/23 15:53:04;;;;;;;4.30;3.90;;;33.50;25.10;;;;;;10252930;28;20302;-71
2023/08/23 15:58:07;;;;;;;4.20;3.80;;;33.50;24.90;;;;;;10257735;28;21156;-72
2023/08/23 16:03:10;;;;;;;4.17;3.80;;;33.50;25.00;;;;;;10258694;28;20320;-71
2023/08/23 16:08:15;;;;;;;4.00;3.70;;;33.60;24.90;;;;;;10249820;28;20320;-71
2023/08/23 16:13:18;;;;;;;4.07;3.67;;;33.60;24.60;;;;;;10258401;28;20237;-73
2023/08/23 16:18:21;;;;;;;4.20;3.90;;;33.60;24.90;;;;;;10263441;28;20402;-73
2023/08/23 16:23:26;;;;;;;4.40;4.00;;;33.50;24.70;;;;;;10267687;28;20233;-72
2023/08/23 16:28:29;;;;;;;3.77;3.57;;;33.50;24.40;;;;;;10253164;28;20721;-73
2023/08/23 16:33:33;;;;;;;4.10;3.80;;;33.50;24.70;;;;;;10263738;28;20647;-72
2023/08/23 16:38:37;;;;;;;4.13;3.83;;;33.40;24.90;;;;;;10267388;28;20944;-72
2023/08/23 16:43:40;;;;;;;4.37;3.97;;;33.40;24.70;;;;;;10261858;28;20714;-72
2023/08/23 16:48:44;;;;;;;4.73;4.20;;;33.40;24.50;;;;;;10257092;28;20590;-72
2023/08/23 16:53:49;;;;;;;4.10;3.80;;;33.30;24.40;;;;;;10270677;28;20732;-72
2023/08/23 16:58:52;;;;;;;4.20;3.80;;;33.30;24.20;;;;;;10259947;28;20233;-72
2023/08/23 17:03:56;;;;;;;4.00;3.70;;;33.30;24.70;;;;;;10265261;28;20289;-72
2023/08/23 17:09:01;;;;;;;5.17;4.00;;;33.30;24.40;;;;;;10268438;28;20613;-72
2023/08/23 17:14:04;;;;;;;3.93;3.63;;;33.20;24.30;;;;;;10265001;28;20243;-72
2023/08/23 17:19:07;;;;;;;3.83;3.50;;;33.20;24.50;;;;;;10258415;28;20607;-72
2023/08/23 17:24:12;;;;;;;5.97;3.80;;;33.20;24.60;;;;;;10276224;28;20327;-72
2023/08/23 17:29:15;;;;;;;3.93;3.50;;;33.10;24.90;;;;;;10258263;28;20236;-72
2023/08/23 17:34:18;;;;;;;3.93;3.53;;;33.10;25.00;;;;;;10268639;28;20246;-72
2023/08/23 17:39:23;;;;;;;4.10;3.57;;;33.00;25.20;;;;;;10259363;28;20775;-71
2023/08/23 17:44:26;;;;;;;3.80;3.50;;;33.00;25.40;;;;;;10261990;28;20776;-72
2023/08/23 17:49:30;;;;;;;3.83;3.63;;;33.00;25.40;;;;;;10272585;28;20235;-72
2023/08/23 17:54:34;;;;;;;3.90;3.70;;;33.00;25.60;;;;;;10267763;28;20306;-72
2023/08/23 17:59:37;;;;;;;4.47;3.80;;;32.90;26.30;;;;;;10260093;28;20232;-72
2023/08/23 18:04:40;;;;;;;4.30;3.90;;;32.90;26.20;;;;;;10272346;28;20260;-72
2023/08/23 18:09:45;;;;;;;4.17;3.70;;;32.80;26.20;;;;;;10257059;28;20903;-71
2023/08/23 18:14:48;;;;;;;4.33;3.93;;;32.80;26.30;;;;;;10268521;28;20232;-73
2023/08/23 18:19:51;;;;;;;5.60;3.93;;;32.70;26.10;;;;;;10271206;28;20233;-72
2023/08/23 18:24:56;;;;;;;3.80;3.50;;;32.70;26.30;;;;;;10262268;28;20232;-73
2023/08/23 18:29:59;;;;;;;4.37;3.87;;;32.60;26.50;;;;;;10275327;28;20223;-73
2023/08/23 18:35:02;;;;;;;4.63;4.03;;;32.40;26.40;;;;;;10271444;28;20240;-73
2023/08/23 18:40:09;;;;;;;4.67;3.80;;;32.30;26.50;;;;;;10265002;28;20704;-73
2023/08/23 18:45:13;;;;;;;4.47;4.07;;;32.20;26.90;;;;;;10271277;28;20257;-73
2023/08/23 18:50:17;;;;;;;4.00;3.60;;;32.10;26.80;;;;;;10269482;28;20235;-73
2023/08/23 18:55:23;;;;;;;4.17;3.80;;;31.90;26.80;;;;;;10261850;28;20804;-72
2023/08/23 19:00:26;;;;;;;3.90;3.60;;;31.70;26.90;;;;;;10262376;28;20235;-72
2023/08/23 19:05:29;;;;;;;3.80;3.60;;;31.60;27.00;;;;;;10264359;28;20239;-72
2023/08/23 19:10:34;;;;;;;7.07;4.90;;;31.50;27.00;;;;;;10269207;28;20242;-72
2023/08/23 19:15:38;;;;;;;5.37;3.77;;;31.30;27.50;;;;;;10264676;28;20241;-72
2023/08/23 19:20:41;;;;;;;5.60;3.83;;;31.20;27.50;;;;;;10267870;28;20716;-72
2023/08/23 19:25:46;;;;;;;4.03;3.73;;;31.00;27.50;;;;;;10257126;28;20279;-72
2023/08/23 19:30:51;;;;;;;4.33;3.47;;;30.90;27.80;;;;;;10271039;28;20319;-72
2023/08/23 19:35:55;;;;;;;4.03;3.73;;;30.80;28.10;;;;;;10269803;28;20669;-72
2023/08/23 19:41:00;;;;;;;4.17;3.77;;;30.70;28.00;;;;;;10259444;28;20263;-73
2023/08/23 19:46:03;;;;;;;4.10;3.80;;;30.60;28.20;;;;;;10263448;28;20294;-72
2023/08/23 19:51:06;;;;;;;4.00;3.70;;;30.50;28.00;;;;;;10260011;28;20335;-72
2023/08/23 19:56:11;;;;;;;5.70;4.00;;;30.40;28.20;;;;;;10250554;28;20803;-72
2023/08/23 20:01:14;;;;;;;4.27;3.97;;;30.30;28.50;;;;;;10262304;28;20796;-70
2023/08/23 20:06:17;;;;;;;4.20;3.90;;;30.30;28.50;;;;;;10263013;28;20244;-70
2023/08/23 20:11:22;;;;;;;4.60;4.20;;;30.10;28.40;;;;;;10256033;28;20767;-71
2023/08/23 20:16:25;;;;;;;4.70;4.30;;;30.00;28.80;;;;;;10248299;28;20717;-71
2023/08/23 20:21:28;;;;;;;4.10;3.80;;;29.70;28.70;;;;;;10259436;28;20238;-71
2023/08/23 20:26:33;;;;;;;4.27;3.97;;;29.60;29.00;;;;;;10262270;28;20239;-71
2023/08/23 20:31:36;;;;;;;5.80;4.30;;;29.50;29.30;;;;;;10264645;28;20246;-71
2023/08/23 20:36:39;;;;;;;4.57;4.17;;;29.40;29.10;;;;;;10269847;28;20240;-71
2023/08/23 20:41:44;;;;;;;4.60;4.27;;;29.30;29.10;;;;;;10255382;28;20608;-71
2023/08/23 20:46:48;;;;;;;4.17;3.87;;;29.00;29.60;;;;;;10276372;28;20969;-71
2023/08/23 20:51:52;;;;;;;4.37;4.00;;;28.70;29.50;;;;;;10277849;28;20724;-71
2023/08/23 20:56:57;;;;;;;4.23;3.93;;;28.50;30.00;;;;;;10273981;28;20284;-72
2023/08/23 21:02:00;;;;;;;5.90;4.00;;;28.40;30.50;;;;;;10273661;28;20224;-71
2023/08/23 21:07:03;;;;;;;4.33;3.93;;;28.30;30.40;;;;;;10268210;28;20230;-72
2023/08/23 21:12:08;;;;;;;4.60;4.00;;;28.20;30.30;;;;;;10268723;28;20348;-71
2023/08/23 21:17:11;;;;;;;4.50;4.07;;;28.10;30.30;;;;;;10275536;28;20231;-71
2023/08/23 21:22:14;;;;;;;4.77;4.30;;;28.00;30.20;;;;;;10267512;28;20239;-71
2023/08/23 21:27:19;;;;;;;4.77;4.37;;;27.80;30.10;;;;;;10265196;28;20234;-71
2023/08/23 21:32:22;;;;;;;7.47;6.23;;;27.70;31.20;;;;;;10273271;28;20246;-71
2023/08/23 21:37:25;;;;;;;5.60;4.77;;;27.50;30.70;;;;;;10267499;28;20359;-71
2023/08/23 21:42:30;;;;;;;4.83;4.43;;;27.30;31.20;;;;;;10277046;28;20728;-71
2023/08/23 21:47:33;;;;;;;6.20;5.13;;;27.20;32.10;;;;;;10268291;28;20232;-71
2023/08/23 21:52:36;;;;;;;5.50;4.43;;;27.10;32.00;;;;;;10276539;28;20232;-71
2023/08/23 21:57:41;;;;;;;5.70;5.20;;;27.00;32.10;;;;;;10267358;28;20239;-71
2023/08/23 22:02:44;;;;;;;5.10;4.70;;;27.00;33.00;;;;;;10266879;28;21649;-71
2023/08/23 22:07:48;;;;;;;6.00;5.20;;;26.90;32.60;;;;;;10265798;28;20228;-71
2023/08/23 22:12:52;;;;;;;5.50;5.00;;;26.80;33.00;;;;;;10262818;28;20240;-71
2023/08/23 22:17:56;;;;;;;4.70;4.40;;;26.80;33.50;;;;;;10270466;28;20229;-71
2023/08/23 22:22:59;;;;;;;4.97;4.57;;;26.70;33.10;;;;;;10269488;28;20232;-71
2023/08/23 22:28:04;;;;;;;5.13;4.43;;;26.60;33.00;;;;;;10264168;28;20326;-71
2023/08/23 22:33:07;;;;;;;4.23;3.93;;;26.60;33.50;;;;;;10271893;28;20327;-71
2023/08/23 22:38:11;;;;;;;5.20;4.80;;;26.40;32.90;;;;;;10269333;28;21786;-71
2023/08/23 22:43:16;;;;;;;4.63;4.23;;;26.30;33.20;;;;;;10262628;28;20602;-70
2023/08/23 22:48:19;;;;;;;6.80;4.73;;;26.30;34.00;;;;;;10268196;28;20233;-71
2023/08/23 22:53:22;;;;;;;5.17;4.67;;;26.20;33.60;;;;;;10276589;28;20327;-71
2023/08/23 22:58:26;;;;;;;5.57;5.00;;;26.10;33.80;;;;;;10278071;28;20275;-71
2023/08/23 23:03:30;;;;;;;5.20;4.80;;;25.90;34.40;;;;;;10265037;28;20804;-71
2023/08/23 23:08:33;;;;;;;5.27;4.77;;;25.80;34.20;;;;;;10269772;28;20314;-71
2023/08/23 23:13:38;;;;;;;4.90;4.50;;;25.60;34.40;;;;;;10264271;28;20242;-71
2023/08/23 23:18:41;;;;;;;5.40;4.90;;;25.60;35.00;;;;;;10266753;28;20242;-71
2023/08/23 23:23:44;;;;;;;4.80;4.40;;;25.60;34.70;;;;;;10271478;28;20240;-71
2023/08/23 23:28:48;;;;;;;5.23;4.70;;;25.60;34.80;;;;;;10274883;28;20311;-71
2023/08/23 23:33:52;;;;;;;5.67;4.40;;;25.60;35.20;;;;;;10263560;28;20246;-71
2023/08/23 23:38:55;;;;;;;5.70;5.20;;;25.60;34.80;;;;;;10267579;28;20231;-71
2023/08/23 23:43:59;;;;;;;5.20;4.80;;;25.60;35.00;;;;;;10267919;28;20232;-71
2023/08/23 23:49:02;;;;;;;5.43;5.03;;;25.50;35.50;;;;;;10274697;28;20414;-71
2023/08/23 23:54:06;;;;;;;5.13;4.63;;;25.40;35.10;;;;;;10268282;28;20676;-71
2023/08/23 23:59:11;;;;;;;4.60;4.30;;;25.20;35.30;;;;;;10263824;28;20331;-71
